Time;durP1;ratioP1;P1;durP2;ratioP2;P2;SDS_P1;SDS_P2;PMS_P1;PMS_P2;Temp;Humidity;BMP_temperature;BMP_pressure;BME280_temperature;BME280_humidity;BME280_pressure;Samples;Min_cycle;Max_cycle;Signal;HPM_P1;HPM_P2
2023/07/01 00:01:37;;;;;;;4.88;2.20;;;18.80;99.90;;;;;;5073121;28;20670;-72
2023/07/01 00:04:04;;;;;;;4.00;2.10;;;18.90;99.90;;;;;;5072635;28;20249;-72
2023/07/01 00:06:31;;;;;;;3.00;2.15;;;18.80;99.90;;;;;;5072834;28;20239;-72
2023/07/01 00:09:00;;;;;;;5.50;2.58;;;18.90;99.90;;;;;;5073480;28;20242;-74
2023/07/01 00:11:28;;;;;;;2.53;2.20;;;18.90;99.90;;;;;;5072910;28;20241;-68
2023/07/01 00:13:55;;;;;;;3.05;2.38;;;18.90;99.90;;;;;;5057143;28;20693;-77
2023/07/01 00:16:22;;;;;;;4.90;2.10;;;18.90;99.90;;;;;;5061161;28;20248;-69
2023/07/01 00:18:49;;;;;;;5.72;2.90;;;18.90;99.90;;;;;;5072364;28;20324;-78
2023/07/01 00:21:16;;;;;;;4.18;2.63;;;18.90;99.90;;;;;;5072614;28;20238;-68
2023/07/01 00:23:43;;;;;;;3.92;2.78;;;18.90;99.90;;;;;;5072981;28;20248;-77
2023/07/01 00:26:11;;;;;;;4.93;2.30;;;18.90;99.90;;;;;;5071929;28;20254;-68
2023/07/01 00:28:38;;;;;;;7.68;4.03;;;18.90;99.90;;;;;;5072654;28;20245;-70
2023/07/01 00:31:05;;;;;;;2.53;2.33;;;18.90;99.90;;;;;;5072160;28;20249;-73
2023/07/01 00:33:32;;;;;;;3.92;2.15;;;18.80;99.90;;;;;;5072220;28;20246;-69
2023/07/01 00:35:59;;;;;;;3.97;2.38;;;18.80;99.90;;;;;;5072785;28;20245;-69
2023/07/01 00:38:26;;;;;;;7.15;2.80;;;18.80;99.90;;;;;;5072698;28;20281;-68
2023/07/01 00:40:52;;;;;;;3.65;2.55;;;18.80;99.90;;;;;;5072358;28;20237;-75
2023/07/01 00:43:21;;;;;;;4.90;3.20;;;18.90;99.90;;;;;;5072158;28;20245;-69
2023/07/01 00:45:48;;;;;;;3.58;2.47;;;18.90;99.90;;;;;;5072320;28;20253;-68
2023/07/01 00:48:24;;;;;;;4.55;2.53;;;18.80;99.90;;;;;;5071417;28;20297;-76
2023/07/01 00:50:51;;;;;;;2.50;2.30;;;18.80;99.90;;;;;;5072445;28;20212;-70
2023/07/01 00:53:18;;;;;;;7.85;3.28;;;18.80;99.90;;;;;;5071579;28;20232;-76
2023/07/01 00:55:45;;;;;;;3.28;2.60;;;18.80;99.90;;;;;;5072067;28;20248;-67
2023/07/01 00:58:12;;;;;;;3.85;2.70;;;18.80;99.90;;;;;;5071745;28;20257;-78
2023/07/01 01:00:41;;;;;;;3.83;2.08;;;18.80;99.90;;;;;;5071781;28;20312;-69
2023/07/01 01:03:21;;;;;;;3.90;2.65;;;18.80;99.90;;;;;;5071763;28;20297;-68
2023/07/01 01:05:54;;;;;;;2.50;2.30;;;18.80;99.90;;;;;;5072097;28;20562;-68
2023/07/01 01:08:28;;;;;;;4.07;2.92;;;18.70;99.90;;;;;;5071489;28;20258;-68
2023/07/01 01:10:57;;;;;;;3.33;2.30;;;18.70;99.90;;;;;;5072203;28;20284;-69
2023/07/01 01:13:27;;;;;;;3.08;2.67;;;18.70;99.90;;;;;;5071757;28;20677;-78
2023/07/01 01:15:57;;;;;;;3.88;2.60;;;18.80;99.90;;;;;;5057666;28;20226;-68
2023/07/01 01:18:28;;;;;;;4.35;2.80;;;18.80;99.90;;;;;;5071978;28;20280;-69
2023/07/01 01:20:57;;;;;;;8.60;3.92;;;18.80;99.90;;;;;;5071679;28;20208;-69
2023/07/01 01:23:27;;;;;;;5.40;3.58;;;18.80;99.90;;;;;;5071140;28;20240;-69
2023/07/01 01:26:05;;;;;;;3.47;2.40;;;18.80;99.90;;;;;;5071612;28;20237;-68
2023/07/01 01:28:33;;;;;;;5.40;2.53;;;18.70;99.90;;;;;;5071749;28;20289;-69
2023/07/01 01:31:01;;;;;;;3.33;3.03;;;18.70;99.90;;;;;;5071257;28;20233;-69
2023/07/01 01:33:28;;;;;;;8.52;2.60;;;18.80;99.90;;;;;;5071500;28;20658;-69
2023/07/01 01:36:02;;;;;;;5.10;2.95;;;18.70;99.90;;;;;;5071454;28;20245;-78
2023/07/01 01:38:33;;;;;;;2.92;2.33;;;18.70;99.90;;;;;;5070960;28;20277;-68
2023/07/01 01:41:05;;;;;;;5.03;2.20;;;18.70;99.90;;;;;;5071188;28;20712;-68
2023/07/01 01:43:42;;;;;;;4.72;2.70;;;18.70;99.90;;;;;;5071109;28;20248;-68
2023/07/01 01:46:10;;;;;;;6.75;2.75;;;18.70;99.90;;;;;;5070682;28;20237;-81
2023/07/01 01:48:39;;;;;;;10.05;3.70;;;18.70;99.90;;;;;;5071093;28;20243;-69
2023/07/01 01:51:08;;;;;;;4.53;2.60;;;18.70;99.90;;;;;;5070789;28;20213;-69
2023/07/01 01:53:38;;;;;;;5.57;3.28;;;18.70;99.90;;;;;;5071349;28;20206;-72
2023/07/01 01:56:07;;;;;;;4.47;2.75;;;18.70;99.90;;;;;;5071088;28;20208;-69
2023/07/01 01:58:35;;;;;;;3.35;2.40;;;18.70;99.90;;;;;;5070674;28;20258;-70
2023/07/01 02:01:02;;;;;;;4.32;2.60;;;18.70;99.90;;;;;;5062587;28;20225;-68
2023/07/01 02:03:29;;;;;;;6.15;3.97;;;18.70;99.90;;;;;;5070837;28;20241;-68
2023/07/01 02:05:56;;;;;;;4.68;3.10;;;18.70;99.90;;;;;;5063222;28;20238;-78
2023/07/01 02:08:23;;;;;;;5.90;2.65;;;18.70;99.90;;;;;;5064408;28;20246;-69
2023/07/01 02:10:50;;;;;;;5.20;2.90;;;18.70;99.90;;;;;;5051138;28;20253;-69
2023/07/01 02:13:17;;;;;;;6.07;2.70;;;18.70;99.90;;;;;;5069289;28;20241;-74
2023/07/01 02:15:45;;;;;;;6.63;3.13;;;18.70;99.90;;;;;;5070625;28;20662;-70
2023/07/01 02:18:12;;;;;;;2.92;2.40;;;18.70;99.90;;;;;;5066422;28;20245;-77
2023/07/01 02:20:39;;;;;;;3.10;2.53;;;18.60;99.90;;;;;;5060511;28;20642;-78
2023/07/01 02:23:06;;;;;;;2.45;2.25;;;18.70;99.90;;;;;;5070300;28;20246;-69
2023/07/01 02:25:33;;;;;;;5.90;2.63;;;18.70;99.90;;;;;;5070525;28;20210;-79
2023/07/01 02:27:59;;;;;;;3.17;2.72;;;18.70;99.90;;;;;;5070157;28;20248;-68
2023/07/01 02:30:26;;;;;;;3.75;2.72;;;18.60;99.90;;;;;;5071006;28;20238;-69
2023/07/01 02:32:54;;;;;;;6.40;2.47;;;18.60;99.90;;;;;;5070480;28;20694;-69
2023/07/01 02:35:21;;;;;;;3.67;2.63;;;18.70;99.90;;;;;;5065551;28;20257;-68
2023/07/01 02:37:48;;;;;;;6.00;3.05;;;18.70;99.90;;;;;;5060900;28;20646;-75
2023/07/01 02:40:15;;;;;;;5.28;2.90;;;18.70;99.90;;;;;;5069968;28;20268;-67
2023/07/01 02:42:42;;;;;;;6.75;3.00;;;18.70;99.90;;;;;;5070257;28;20260;-78
2023/07/01 02:45:10;;;;;;;11.90;3.22;;;18.70;99.90;;;;;;5070163;28;20252;-68
2023/07/01 02:47:37;;;;;;;3.83;2.72;;;18.70;99.90;;;;;;5070622;28;20244;-78
2023/07/01 02:50:06;;;;;;;7.05;3.05;;;18.70;99.90;;;;;;5072543;28;20245;-68
2023/07/01 02:52:33;;;;;;;5.13;2.50;;;18.60;99.90;;;;;;5074423;28;20229;-68
2023/07/01 02:55:00;;;;;;;3.03;2.53;;;18.60;99.90;;;;;;5074612;28;20264;-75
2023/07/01 02:57:27;;;;;;;3.50;2.78;;;18.60;99.90;;;;;;5074080;28;20279;-77
2023/07/01 02:59:56;;;;;;;6.25;2.55;;;18.60;99.90;;;;;;5074698;28;20238;-77
2023/07/01 03:02:22;;;;;;;3.95;2.90;;;18.60;99.90;;;;;;5074010;28;20237;-66
2023/07/01 03:04:49;;;;;;;4.68;3.25;;;18.60;99.90;;;;;;5074233;28;20252;-67
2023/07/01 03:07:18;;;;;;;6.43;2.85;;;18.60;99.90;;;;;;5073622;28;20249;-67
2023/07/01 03:09:44;;;;;;;3.60;2.55;;;18.60;99.90;;;;;;5067713;28;20238;-67
2023/07/01 03:12:11;;;;;;;4.30;2.47;;;18.50;99.90;;;;;;5066300;28;20242;-70
2023/07/01 03:14:38;;;;;;;3.40;2.70;;;18.50;99.90;;;;;;5074042;28;20230;-67
2023/07/01 03:17:06;;;;;;;4.10;2.30;;;18.50;99.90;;;;;;5073865;28;20240;-67
2023/07/01 03:19:33;;;;;;;3.33;2.42;;;18.50;99.90;;;;;;5073991;28;20260;-74
2023/07/01 03:22:00;;;;;;;3.00;2.63;;;18.60;99.90;;;;;;5073975;28;20237;-68
2023/07/01 03:24:33;;;;;;;3.90;2.70;;;18.60;99.90;;;;;;5073638;28;20202;-72
2023/07/01 03:27:02;;;;;;;4.80;3.22;;;18.50;99.90;;;;;;5073576;28;20198;-67
2023/07/01 03:29:29;;;;;;;3.22;2.33;;;18.40;99.90;;;;;;5073821;28;20279;-68
2023/07/01 03:31:56;;;;;;;4.40;3.05;;;18.30;99.90;;;;;;5073894;28;20237;-67
2023/07/01 03:34:24;;;;;;;2.97;2.55;;;18.20;99.90;;;;;;5073365;28;20206;-67
2023/07/01 03:36:51;;;;;;;5.93;2.90;;;18.20;99.90;;;;;;5073510;28;20712;-77
2023/07/01 03:39:18;;;;;;;5.47;2.50;;;18.20;99.90;;;;;;5073430;28;20269;-69
2023/07/01 03:41:46;;;;;;;4.30;3.05;;;18.30;99.90;;;;;;5073080;28;20719;-69
2023/07/01 03:44:13;;;;;;;5.03;3.00;;;18.20;99.90;;;;;;5073206;28;20241;-69
2023/07/01 03:46:40;;;;;;;3.88;2.47;;;18.20;99.90;;;;;;5073415;28;20253;-73
2023/07/01 03:49:07;;;;;;;6.90;2.92;;;18.30;99.90;;;;;;5073023;28;20237;-69
2023/07/01 03:51:34;;;;;;;5.03;2.90;;;18.30;99.90;;;;;;5073082;28;20248;-68
2023/07/01 03:54:01;;;;;;;3.78;2.50;;;18.40;99.90;;;;;;5073619;28;20202;-69
2023/07/01 03:56:28;;;;;;;2.63;2.17;;;18.40;99.90;;;;;;5073564;28;20240;-67
2023/07/01 03:58:56;;;;;;;3.40;2.45;;;18.40;99.90;;;;;;5073347;28;20206;-71
2023/07/01 04:01:23;;;;;;;6.38;2.75;;;18.40;99.90;;;;;;5072015;28;20678;-69
2023/07/01 04:03:53;;;;;;;4.75;2.78;;;18.40;99.90;;;;;;5073174;28;20210;-68
2023/07/01 04:06:20;;;;;;;4.82;2.45;;;18.50;99.90;;;;;;5072731;28;20214;-68
2023/07/01 04:08:52;;;;;;;7.20;2.97;;;18.50;99.90;;;;;;5073013;28;20241;-68
2023/07/01 04:11:19;;;;;;;4.80;2.35;;;18.50;99.90;;;;;;5058442;28;20288;-68
2023/07/01 04:13:46;;;;;;;2.50;2.30;;;18.50;99.90;;;;;;5072929;28;20245;-69
2023/07/01 04:16:14;;;;;;;2.53;2.10;;;18.50;99.90;;;;;;5072542;28;20234;-69
2023/07/01 04:18:41;;;;;;;3.13;2.50;;;18.50;99.90;;;;;;5072929;28;20214;-68
2023/07/01 04:21:08;;;;;;;3.85;3.08;;;18.50;99.90;;;;;;5072526;28;20299;-69
2023/07/01 04:23:36;;;;;;;7.10;2.53;;;18.50;99.90;;;;;;5072907;28;20237;-69
2023/07/01 04:26:03;;;;;;;5.22;2.65;;;18.50;99.90;;;;;;5072438;28;20761;-69
2023/07/01 04:28:30;;;;;;;3.40;2.53;;;18.50;99.90;;;;;;5072746;28;20206;-69
2023/07/01 04:30:57;;;;;;;2.90;2.70;;;18.50;99.90;;;;;;5072888;28;20210;-69
2023/07/01 04:33:25;;;;;;;3.40;2.50;;;18.50;99.90;;;;;;5071923;28;20249;-69
2023/07/01 04:35:52;;;;;;;2.95;2.40;;;18.50;99.90;;;;;;5072378;28;20206;-69
2023/07/01 04:38:19;;;;;;;7.47;4.63;;;18.50;99.90;;;;;;5072132;28;20743;-70
2023/07/01 04:40:46;;;;;;;5.07;2.70;;;18.50;99.90;;;;;;5072358;28;20269;-70
2023/07/01 04:43:13;;;;;;;4.95;2.60;;;18.50;99.90;;;;;;5072071;28;20214;-77
2023/07/01 04:45:42;;;;;;;4.13;2.65;;;18.60;99.90;;;;;;5072073;28;20242;-69
2023/07/01 04:48:09;;;;;;;5.80;3.10;;;18.60;99.90;;;;;;5072412;28;20237;-68
2023/07/01 04:50:37;;;;;;;4.68;2.95;;;18.60;99.90;;;;;;5072372;28;20655;-70
2023/07/01 04:53:04;;;;;;;4.60;2.30;;;18.60;99.90;;;;;;5071586;28;20210;-69
2023/07/01 04:55:31;;;;;;;3.72;2.85;;;18.60;99.90;;;;;;5071953;28;20648;-69
2023/07/01 04:57:58;;;;;;;7.25;3.50;;;18.60;99.90;;;;;;5072087;28;20252;-81
2023/07/01 05:00:25;;;;;;;3.15;2.25;;;18.60;99.90;;;;;;5071741;28;20230;-73
2023/07/01 05:02:52;;;;;;;3.20;2.15;;;18.60;99.90;;;;;;5071517;28;20238;-69
2023/07/01 05:05:19;;;;;;;3.13;2.55;;;18.60;99.90;;;;;;5071649;28;20648;-68
2023/07/01 05:07:48;;;;;;;3.25;2.95;;;18.60;99.90;;;;;;5071488;28;20206;-77
2023/07/01 05:10:15;;;;;;;3.90;2.88;;;18.60;99.90;;;;;;5061161;28;20211;-68
2023/07/01 05:12:41;;;;;;;4.15;3.05;;;18.60;99.90;;;;;;5067072;28;20234;-77
2023/07/01 05:15:09;;;;;;;4.28;2.63;;;18.60;99.90;;;;;;5071253;28;20637;-69
2023/07/01 05:17:36;;;;;;;5.93;2.72;;;18.70;99.90;;;;;;5069547;28;20657;-78
2023/07/01 05:20:04;;;;;;;5.20;2.53;;;18.60;99.90;;;;;;5063980;28;20307;-69
2023/07/01 05:22:31;;;;;;;3.17;2.88;;;18.60;99.90;;;;;;5061628;28;20653;-70
2023/07/01 05:25:00;;;;;;;8.70;2.60;;;18.60;99.90;;;;;;5065268;28;20234;-78
2023/07/01 05:27:26;;;;;;;3.25;2.35;;;18.50;99.90;;;;;;5058135;28;20237;-72
2023/07/01 05:29:53;;;;;;;3.45;2.85;;;18.60;99.90;;;;;;5058249;28;20245;-72
2023/07/01 05:32:20;;;;;;;5.18;2.78;;;18.60;99.90;;;;;;5063611;28;20253;-77
2023/07/01 05:34:47;;;;;;;2.63;2.13;;;18.60;99.90;;;;;;5063522;28;20238;-67
2023/07/01 05:37:14;;;;;;;5.20;2.65;;;18.60;99.90;;;;;;5063139;28;20674;-67
2023/07/01 05:39:41;;;;;;;6.10;3.08;;;18.70;99.90;;;;;;5065007;28;20269;-67
2023/07/01 05:42:09;;;;;;;2.38;1.90;;;18.70;99.90;;;;;;5062246;28;20245;-67
2023/07/01 05:44:36;;;;;;;3.67;2.28;;;18.80;99.90;;;;;;5065451;28;20238;-69
2023/07/01 05:47:04;;;;;;;3.15;2.67;;;18.80;99.90;;;;;;5050592;28;20242;-68
2023/07/01 05:49:31;;;;;;;4.43;2.50;;;18.80;99.90;;;;;;5049984;28;20238;-68
2023/07/01 05:51:57;;;;;;;2.83;2.38;;;18.90;99.90;;;;;;5050927;28;20242;-75
2023/07/01 05:54:24;;;;;;;3.47;2.25;;;19.00;99.90;;;;;;5050632;28;20234;-68
2023/07/01 05:56:51;;;;;;;4.53;2.40;;;19.10;99.90;;;;;;5050911;28;20234;-68
2023/07/01 05:59:20;;;;;;;4.10;2.00;;;19.10;99.90;;;;;;5055847;28;20237;-68
2023/07/01 06:01:47;;;;;;;9.32;2.58;;;19.10;99.90;;;;;;5050593;28;20703;-68
2023/07/01 06:04:14;;;;;;;4.18;2.60;;;19.10;99.90;;;;;;5051195;28;20265;-68
2023/07/01 06:06:40;;;;;;;3.67;2.70;;;19.00;99.90;;;;;;5055199;28;20242;-68
2023/07/01 06:09:09;;;;;;;3.97;2.20;;;19.00;99.90;;;;;;5049660;28;20252;-71
2023/07/01 06:11:37;;;;;;;3.33;2.50;;;19.00;99.90;;;;;;5066320;28;20482;-71
2023/07/01 06:14:03;;;;;;;4.13;2.88;;;19.20;99.90;;;;;;5056978;28;20242;-71
2023/07/01 06:16:32;;;;;;;5.22;2.83;;;19.20;99.90;;;;;;5057735;28;20233;-70
2023/07/01 06:18:59;;;;;;;4.30;2.22;;;19.20;99.90;;;;;;5058869;28;20238;-78
2023/07/01 06:21:26;;;;;;;4.57;3.03;;;19.20;99.90;;;;;;5051576;28;20265;-75
2023/07/01 06:23:55;;;;;;;5.22;2.47;;;19.10;99.90;;;;;;5056382;28;20242;-79
2023/07/01 06:26:22;;;;;;;2.70;1.98;;;19.10;99.90;;;;;;5054861;28;20213;-71
2023/07/01 06:28:49;;;;;;;8.00;2.92;;;19.20;99.90;;;;;;5054141;28;20234;-78
2023/07/01 06:31:16;;;;;;;5.80;2.55;;;19.40;99.90;;;;;;5056909;28;20237;-77
2023/07/01 06:33:45;;;;;;;4.50;2.53;;;19.60;99.90;;;;;;5057196;28;20261;-77
2023/07/01 06:36:14;;;;;;;5.72;2.25;;;19.70;99.90;;;;;;5059330;28;20557;-77
2023/07/01 06:38:41;;;;;;;3.78;2.50;;;19.80;99.90;;;;;;5057986;28;20666;-70
2023/07/01 06:41:08;;;;;;;5.45;2.35;;;19.90;99.90;;;;;;5051486;28;20230;-76
2023/07/01 06:43:38;;;;;;;3.50;2.50;;;19.90;99.90;;;;;;5053775;28;20238;-69
2023/07/01 06:46:06;;;;;;;2.15;1.75;;;19.80;99.90;;;;;;5054211;28;20213;-67
2023/07/01 06:48:33;;;;;;;2.25;2.03;;;19.80;99.90;;;;;;5054985;28;20692;-73
2023/07/01 06:51:03;;;;;;;11.25;2.47;;;19.60;99.90;;;;;;5051923;28;20202;-67
2023/07/01 06:53:30;;;;;;;3.05;2.25;;;19.50;99.90;;;;;;5049422;28;20211;-68
2023/07/01 06:55:57;;;;;;;7.05;3.05;;;19.50;99.90;;;;;;5054703;28;20238;-67
2023/07/01 06:58:24;;;;;;;4.95;2.58;;;19.50;99.90;;;;;;5049635;28;20206;-67
2023/07/01 07:00:51;;;;;;;4.95;2.58;;;19.40;99.90;;;;;;5048926;28;20258;-66
2023/07/01 07:03:18;;;;;;;4.20;2.03;;;19.40;99.90;;;;;;5049646;28;20230;-66
2023/07/01 07:05:44;;;;;;;3.53;2.83;;;19.50;99.90;;;;;;5049822;28;20238;-65
2023/07/01 07:08:13;;;;;;;3.17;2.13;;;19.40;99.90;;;;;;5049592;28;20652;-66
2023/07/01 07:10:40;;;;;;;2.67;1.98;;;19.50;99.90;;;;;;5050175;28;20315;-66
2023/07/01 07:13:07;;;;;;;3.25;2.55;;;19.50;99.90;;;;;;5053862;28;20237;-66
2023/07/01 07:15:34;;;;;;;2.38;1.75;;;19.50;99.90;;;;;;5054457;28;20311;-74
2023/07/01 07:18:01;;;;;;;2.35;2.13;;;19.50;99.90;;;;;;5056655;28;20203;-75
2023/07/01 07:20:28;;;;;;;4.00;2.25;;;19.60;99.90;;;;;;5053335;28;20714;-66
2023/07/01 07:22:55;;;;;;;3.83;1.83;;;19.60;99.90;;;;;;5053571;28;20257;-66
2023/07/01 07:25:23;;;;;;;2.65;2.28;;;19.60;99.90;;;;;;5055254;28;20991;-70
2023/07/01 07:27:50;;;;;;;3.55;1.83;;;19.60;99.90;;;;;;5063343;28;20217;-68
2023/07/01 07:30:17;;;;;;;2.33;2.08;;;19.60;99.90;;;;;;5051037;28;20245;-68
2023/07/01 07:32:44;;;;;;;2.92;2.13;;;19.60;99.90;;;;;;5061306;28;20241;-69
2023/07/01 07:35:11;;;;;;;4.35;1.95;;;19.70;99.90;;;;;;5061470;28;20206;-68
2023/07/01 07:37:38;;;;;;;3.05;2.33;;;19.80;99.90;;;;;;5054645;28;20247;-68
2023/07/01 07:40:07;;;;;;;2.35;1.95;;;19.80;99.90;;;;;;5052810;28;20234;-68
2023/07/01 07:42:36;;;;;;;2.55;2.35;;;19.80;99.90;;;;;;5053367;28;20690;-67
2023/07/01 07:45:03;;;;;;;3.78;2.33;;;19.90;99.90;;;;;;5056014;28;20242;-68
2023/07/01 07:47:29;;;;;;;4.57;2.42;;;19.90;99.90;;;;;;5063843;28;20238;-68
2023/07/01 07:49:56;;;;;;;4.60;2.40;;;19.90;99.90;;;;;;5054512;28;20252;-69
2023/07/01 07:52:23;;;;;;;5.93;2.20;;;19.90;99.90;;;;;;5061256;28;20246;-70
2023/07/01 07:54:50;;;;;;;4.22;1.90;;;19.90;99.90;;;;;;5055592;28;20238;-68
2023/07/01 07:57:17;;;;;;;2.00;1.70;;;20.00;99.90;;;;;;5052945;28;20242;-67
2023/07/01 07:59:46;;;;;;;3.72;2.00;;;20.10;99.90;;;;;;5053353;28;20238;-68
2023/07/01 08:02:12;;;;;;;2.80;2.15;;;20.20;99.90;;;;;;5052081;28;20273;-67
2023/07/01 08:04:39;;;;;;;3.88;2.00;;;20.20;99.90;;;;;;5058755;28;20234;-68
2023/07/01 08:07:07;;;;;;;4.00;2.10;;;20.10;99.90;;;;;;5053963;28;20245;-72
2023/07/01 08:09:34;;;;;;;3.78;2.60;;;20.10;99.90;;;;;;5052910;28;20213;-67
2023/07/01 08:12:02;;;;;;;1.92;1.73;;;20.10;99.90;;;;;;5056016;28;20239;-68
2023/07/01 08:14:29;;;;;;;6.57;2.05;;;20.10;99.90;;;;;;5060209;28;20199;-68
2023/07/01 08:16:59;;;;;;;5.55;1.83;;;20.20;99.90;;;;;;5059809;28;20234;-79
2023/07/01 08:19:26;;;;;;;2.72;1.70;;;20.20;99.90;;;;;;5057424;28;20294;-67
2023/07/01 08:21:54;;;;;;;2.08;1.60;;;20.30;99.90;;;;;;5054556;28;20679;-66
2023/07/01 08:24:22;;;;;;;1.95;1.60;;;20.30;99.90;;;;;;5056490;28;20210;-82
2023/07/01 08:26:49;;;;;;;1.52;1.42;;;20.30;99.90;;;;;;5059487;28;20202;-67
2023/07/01 08:29:16;;;;;;;2.80;1.75;;;20.30;99.90;;;;;;5064624;28;20245;-90
2023/07/01 08:31:44;;;;;;;3.20;2.17;;;20.30;99.90;;;;;;5055778;28;20269;-84
2023/07/01 08:34:12;;;;;;;1.70;1.33;;;20.40;99.90;;;;;;5057829;28;20210;-81
2023/07/01 08:36:39;;;;;;;2.33;1.60;;;20.40;99.90;;;;;;5058785;28;20261;-82
2023/07/01 08:39:07;;;;;;;1.65;1.40;;;20.40;99.90;;;;;;5057923;28;20238;-68
2023/07/01 08:41:41;;;;;;;1.63;1.52;;;20.30;99.90;;;;;;5061851;28;20245;-87
2023/07/01 08:44:09;;;;;;;1.70;1.55;;;20.20;99.90;;;;;;5059291;28;20215;-85
2023/07/01 08:46:40;;;;;;;1.70;1.60;;;20.20;99.90;;;;;;5062650;28;20233;-68
2023/07/01 08:49:08;;;;;;;3.35;1.95;;;20.20;99.90;;;;;;5052459;28;20689;-82
2023/07/01 08:51:41;;;;;;;2.75;1.60;;;20.20;99.90;;;;;;5062690;28;20772;-71
2023/07/01 08:54:09;;;;;;;3.30;1.55;;;20.20;99.90;;;;;;5061697;28;20238;-75
2023/07/01 08:56:37;;;;;;;4.38;1.60;;;20.20;99.90;;;;;;5066817;28;20220;-76
2023/07/01 08:59:05;;;;;;;2.42;1.23;;;20.30;99.90;;;;;;5066308;28;20211;-89
2023/07/01 09:01:33;;;;;;;1.50;1.33;;;20.30;99.90;;;;;;5062914;28;20274;-74
2023/07/01 09:04:01;;;;;;;2.97;1.60;;;20.30;99.90;;;;;;5065499;28;20261;-70
2023/07/01 09:06:28;;;;;;;2.40;1.10;;;20.30;99.90;;;;;;5060345;28;20260;-71
2023/07/01 09:08:57;;;;;;;2.55;1.80;;;20.20;99.90;;;;;;5062591;28;20234;-69
2023/07/01 09:11:23;;;;;;;1.88;1.35;;;20.20;99.90;;;;;;5060866;28;20233;-78
2023/07/01 09:13:55;;;;;;;1.67;1.35;;;20.30;99.90;;;;;;5066281;28;20253;-78
2023/07/01 09:16:32;;;;;;;2.15;1.23;;;20.30;99.90;;;;;;5063183;28;20599;-71
2023/07/01 09:19:07;;;;;;;1.65;1.55;;;20.30;99.90;;;;;;5060754;28;20206;-73
2023/07/01 09:21:34;;;;;;;2.17;1.13;;;20.30;99.90;;;;;;5065116;28;20265;-73
2023/07/01 09:24:05;;;;;;;2.50;1.40;;;20.40;99.90;;;;;;5070868;28;20213;-74
2023/07/01 09:26:33;;;;;;;2.22;1.75;;;20.40;99.90;;;;;;5065306;28;20207;-74
2023/07/01 09:29:08;;;;;;;3.88;1.35;;;20.50;99.90;;;;;;5057029;28;20234;-81
2023/07/01 09:31:45;;;;;;;3.45;1.60;;;20.50;99.90;;;;;;5058739;28;20473;-67
2023/07/01 09:34:12;;;;;;;3.22;2.70;;;20.60;99.90;;;;;;5056389;28;20222;-67
2023/07/01 09:36:39;;;;;;;1.75;1.40;;;20.60;99.90;;;;;;5062221;28;20241;-66
2023/07/01 09:39:07;;;;;;;3.00;2.13;;;20.70;99.90;;;;;;5066579;28;20858;-67
2023/07/01 09:41:34;;;;;;;1.63;1.50;;;20.70;99.90;;;;;;5053668;28;20693;-67
2023/07/01 09:44:01;;;;;;;3.03;1.92;;;20.70;99.90;;;;;;5050743;28;20245;-67
2023/07/01 09:46:41;;;;;;;1.50;1.40;;;20.70;99.90;;;;;;5051440;28;20269;-68
2023/07/01 09:49:09;;;;;;;4.15;2.13;;;20.60;99.90;;;;;;5050789;28;20210;-67
2023/07/01 09:51:46;;;;;;;5.50;2.53;;;20.70;99.90;;;;;;5049109;28;20249;-67
2023/07/01 09:54:25;;;;;;;3.70;1.95;;;20.80;99.90;;;;;;5048605;28;20667;-71
2023/07/01 09:56:54;;;;;;;3.60;2.10;;;20.90;99.90;;;;;;5049678;28;20666;-86
2023/07/01 09:59:22;;;;;;;3.58;2.15;;;21.00;99.90;;;;;;5049185;28;20203;-81
2023/07/01 10:01:50;;;;;;;2.42;1.55;;;21.00;99.90;;;;;;5061909;28;20266;-80
2023/07/01 10:04:21;;;;;;;2.85;2.55;;;21.10;99.90;;;;;;5050123;28;20241;-75
2023/07/01 10:06:49;;;;;;;2.30;1.55;;;21.30;99.90;;;;;;5051160;28;20302;-82
2023/07/01 10:09:15;;;;;;;3.53;1.75;;;21.50;99.90;;;;;;5050462;28;20207;-76
2023/07/01 10:11:44;;;;;;;1.48;1.38;;;21.50;99.90;;;;;;5059497;28;20677;-85
2023/07/01 10:14:12;;;;;;;2.55;1.98;;;21.70;99.90;;;;;;5070927;28;20237;-82
2023/07/01 10:16:47;;;;;;;2.90;2.08;;;21.70;99.90;;;;;;5070927;28;20240;-75
2023/07/01 10:19:27;;;;;;;2.58;1.52;;;21.70;99.90;;;;;;5055183;28;20294;-82
2023/07/01 10:22:15;;;;;;;2.30;1.58;;;21.50;99.90;;;;;;5051371;28;20318;-83
2023/07/01 10:24:44;;;;;;;2.60;1.83;;;21.40;99.90;;;;;;5050672;28;20646;-82
2023/07/01 10:27:12;;;;;;;2.75;2.20;;;21.30;99.90;;;;;;5050361;28;20242;-66
2023/07/01 10:29:40;;;;;;;3.15;1.67;;;21.20;99.90;;;;;;5050581;28;20234;-67
2023/07/01 10:32:34;;;;;;;3.78;2.58;;;21.20;99.90;;;;;;5050379;28;20256;-67
2023/07/01 10:35:15;;;;;;;3.28;2.00;;;21.00;99.90;;;;;;5050448;28;20211;-78
2023/07/01 10:37:43;;;;;;;1.67;1.58;;;21.00;99.90;;;;;;5050362;28;20206;-67
2023/07/01 10:40:45;;;;;;;3.88;2.05;;;21.10;99.90;;;;;;5050094;28;20231;-68
2023/07/01 10:43:27;;;;;;;1.90;1.60;;;21.00;99.90;;;;;;5043386;28;20242;-81
2023/07/01 10:46:08;;;;;;;2.05;1.85;;;21.10;99.90;;;;;;5050384;28;20293;-84
2023/07/01 10:48:35;;;;;;;2.45;1.92;;;21.00;99.90;;;;;;5050343;28;20209;-85
2023/07/01 10:51:04;;;;;;;6.13;2.38;;;21.10;99.90;;;;;;5050126;28;20207;-67
2023/07/01 10:53:31;;;;;;;2.63;1.98;;;21.10;99.90;;;;;;5050275;28;20207;-69
2023/07/01 10:56:16;;;;;;;2.65;2.17;;;21.10;99.90;;;;;;5050617;28;20234;-67
2023/07/01 10:58:44;;;;;;;2.00;1.80;;;21.20;99.90;;;;;;5050212;28;20646;-68
2023/07/01 11:01:44;;;;;;;2.13;1.90;;;21.30;99.90;;;;;;5049882;28;20314;-84
2023/07/01 11:04:11;;;;;;;3.08;1.70;;;21.30;99.90;;;;;;5049930;28;20647;-67
2023/07/01 11:06:46;;;;;;;3.20;1.60;;;21.30;99.90;;;;;;5063111;28;20213;-67
2023/07/01 11:09:14;;;;;;;6.78;2.70;;;21.40;99.90;;;;;;5049824;28;20658;-84
2023/07/01 11:11:41;;;;;;;3.40;2.25;;;21.50;99.90;;;;;;5061759;28;20241;-68
2023/07/01 11:14:12;;;;;;;3.10;2.80;;;21.50;99.90;;;;;;5073706;28;20643;-67
2023/07/01 11:16:40;;;;;;;3.92;2.10;;;21.60;99.90;;;;;;5074358;28;20234;-72
2023/07/01 11:19:09;;;;;;;4.40;2.20;;;21.50;99.90;;;;;;5073902;28;20245;-67
2023/07/01 11:21:37;;;;;;;2.72;2.03;;;21.60;99.90;;;;;;5074336;28;20261;-67
2023/07/01 11:24:06;;;;;;;3.35;2.30;;;21.80;99.90;;;;;;5074122;28;20241;-89
2023/07/01 11:26:34;;;;;;;2.33;2.13;;;21.90;99.90;;;;;;5074064;28;20241;-67
2023/07/01 11:29:02;;;;;;;3.53;3.13;;;22.20;99.90;;;;;;5074125;28;20270;-67
2023/07/01 11:31:36;;;;;;;3.53;2.40;;;22.60;99.90;;;;;;5065062;28;20236;-67
2023/07/01 11:34:03;;;;;;;4.68;2.55;;;22.80;99.90;;;;;;5072845;28;20589;-67
2023/07/01 11:36:37;;;;;;;3.97;2.50;;;22.80;99.90;;;;;;5072173;28;20697;-67
2023/07/01 11:39:06;;;;;;;1.70;1.55;;;22.70;99.90;;;;;;5070295;28;20281;-67
2023/07/01 11:41:35;;;;;;;3.22;1.92;;;22.70;99.90;;;;;;5072343;28;20720;-67
2023/07/01 11:44:02;;;;;;;2.85;1.70;;;22.60;99.90;;;;;;5073633;28;20658;-67
2023/07/01 11:46:34;;;;;;;3.53;1.83;;;22.50;99.90;;;;;;5073602;28;20267;-67
2023/07/01 11:49:15;;;;;;;3.88;2.33;;;22.50;99.90;;;;;;5073628;28;20644;-67
2023/07/01 11:51:44;;;;;;;4.00;2.38;;;22.60;99.90;;;;;;5073561;28;20248;-83
2023/07/01 11:54:11;;;;;;;3.85;2.00;;;22.60;99.90;;;;;;5072938;28;20249;-85
2023/07/01 11:56:38;;;;;;;5.90;2.00;;;22.50;99.90;;;;;;5073255;28;20205;-68
2023/07/01 11:59:05;;;;;;;5.70;2.13;;;22.50;99.90;;;;;;5073149;28;20242;-67
2023/07/01 12:01:32;;;;;;;5.82;2.38;;;22.70;99.90;;;;;;5073558;28;20276;-67
2023/07/01 12:04:01;;;;;;;3.20;1.95;;;22.90;99.90;;;;;;5073393;28;20279;-67
2023/07/01 12:06:27;;;;;;;4.95;2.08;;;23.20;99.90;;;;;;5073968;28;20246;-67
2023/07/01 12:08:55;;;;;;;5.00;2.15;;;23.20;99.90;;;;;;5073167;28;20209;-67
2023/07/01 12:11:23;;;;;;;5.97;2.25;;;23.10;99.90;;;;;;5058593;28;20240;-67
2023/07/01 12:13:51;;;;;;;3.17;2.22;;;23.10;99.90;;;;;;5073357;28;20224;-78
2023/07/01 12:16:19;;;;;;;2.00;1.83;;;22.90;99.90;;;;;;5058571;28;20287;-67
2023/07/01 12:18:46;;;;;;;3.17;1.70;;;22.90;99.90;;;;;;5073378;28;20202;-67
2023/07/01 12:21:14;;;;;;;3.92;1.80;;;23.10;99.90;;;;;;5072775;28;20297;-67
2023/07/01 12:23:42;;;;;;;2.63;1.58;;;23.20;99.90;;;;;;5072263;28;20346;-67
2023/07/01 12:26:10;;;;;;;5.28;1.83;;;23.50;99.90;;;;;;5072349;28;20248;-67
2023/07/01 12:28:38;;;;;;;2.90;1.67;;;23.90;99.90;;;;;;5072907;28;20689;-67
2023/07/01 12:31:06;;;;;;;1.60;1.50;;;23.90;99.90;;;;;;5072537;28;20686;-67
2023/07/01 12:33:33;;;;;;;1.42;1.33;;;23.70;99.90;;;;;;5073127;28;20241;-83
2023/07/01 12:36:01;;;;;;;2.78;1.33;;;23.30;99.90;;;;;;5073196;28;20216;-82
2023/07/01 12:38:29;;;;;;;2.00;1.45;;;23.00;99.90;;;;;;5073162;28;20233;-84
2023/07/01 12:40:58;;;;;;;1.50;1.40;;;22.90;99.90;;;;;;5073837;28;20260;-86
2023/07/01 12:43:27;;;;;;;2.88;1.60;;;22.70;99.90;;;;;;5073089;28;20725;-88
2023/07/01 12:45:55;;;;;;;2.42;1.25;;;22.60;99.90;;;;;;5073326;28;20214;-88
2023/07/01 12:48:23;;;;;;;2.30;1.10;;;22.60;99.90;;;;;;5073014;28;20209;-68
2023/07/01 12:50:50;;;;;;;1.45;1.35;;;22.60;99.90;;;;;;5073170;28;20240;-85
2023/07/01 12:53:17;;;;;;;4.65;2.42;;;22.60;99.90;;;;;;5072464;28;20210;-84